LRSV/SCV METAR and TAF weather

Enter ICAO airport designator
Station Type Date Time Source
LRSV METAR 2018/12/10 12:30 UTC NOAA

LRSV 101230Z 27004KT CAVOK 05/M00 Q1004 R16/19//95


Station Type Date Time Source
LRSV Decoded METAR 2018/12/10 12:30 UTC NOAA

Suceava / Salcea, Romania (LRSV) 47-39N 026-15E 351M
Dec 10, 2018 - 07:30 AM EST / 2018.12.10 1230 UTC
Wind: from the W (270 degrees) at 5 MPH (4 KT):0
Visibility: greater than 7 mile(s):0
Temperature: 41 F (5 C)
Dew Point: 32 F (0 C)
Relative Humidity: 70%
Pressure (altimeter): 29.65 in. Hg (1004 hPa)
ob: LRSV 101230Z 27004KT CAVOK 05/M00 Q1004 R16/19//95
cycle: 12

Station Type Date Time Source
LRSV TAF 2014/07/19 18:48 UTC NOAA

TAF LRSV 191800Z 1918/2024 CNL


Example: see airport list